"WATCHING THE WEATHER TO PROTECT LIFE AND PROPERTY"


THERE ARE CURRENTLY NO WATCHES NOR WARNINGS


Aviation
Satellite (InfraRed)


KFLL 262053Z 30008KT 10SM FEW030 BKN090 BKN160 26/18 A3006 RMK AO2 SLP177 T02560178 53000
KMCO 262053Z 32010G16KT 10SM FEW250 19/06 A3012 RMK AO2 SLP199 T01940061 55004
KMIA 262053Z 31008KT 10SM FEW030 BKN095 BKN150 26/18 A3007 RMK AO2 SLP182 T02560183 53001
KTPA 262053Z 34015G22KT 10SM SCT240 15/06 A3017 RMK AO2 SLP214 T01500061 55005
MDPP 262100Z 10013KT 9999 SCT020 SCT070 28/23 Q1015
MDSD 262100Z 14010KT 9999 FEW020 29/21 Q1016
MKJS 262100Z 08019KT 9999 FEW024 29/18 Q1014
MTPP 262100Z 29010KT 9999 FEW025 29/20 Q1014 A2997
MUHA 262050Z 01014KT 9000 SCT020 BKN030 26/22 Q1017
MYNN 262100Z 23007KT 190V250 9999 FEW018 27/22 A3007
TAPA 262100Z 07008KT 040V120 9999 FEW022 25/18 Q1015 NOSIG
TFFF 262100Z AUTO 09011KT 9999 ////// 27/19 Q1014
TFFR 262100Z AUTO 07012KT 9999 FEW030 26/19 Q1015 NOSIG
TIST 262053Z 04010G17KT 10SM CLR 27/19 A3001 RMK AO2 SLP164 T02670194 55001
TISX 262053Z 04009KT 10SM FEW036 27/19 A3001 RMK AO2 SLP162 T02720194 55000 $
TJSJ 262056Z 08011KT 10SM SCT036 27/20 A3004 RMK AO2 SLP170 T02670200 55002
TKPK 262100Z 05012KT 9999 SCT022 26/19 Q1016
TNCA 262000Z 08018KT 9999 FEW025 28/21 Q1012 NOSIG
TNCB 262055Z 07012KT 040V100 9999 SCT018 SCT022 27/22 Q1012
TNCC 262100Z 07012KT 9999 BKN020 26/22 Q1013 TEMPO 5000 SHRA FEW016TCU
TNCE 262055Z AUTO 05011KT //// // ///////// 26/18 Q1016 RE//
TNCM 262100Z 07008KT 030V100 9999 FEW018 27/20 Q1017 NOSIG
TQPF 262100Z 07009KT 9999 SCT020 26/19 Q1016
TUPJ 262100Z 04006KT 10SM SCT022 26/20 A3003 RMK Q1016 VIS16KM